sensor_id;sensor_type;location;lat;lon;timestamp;temperature;humidity
16182;DHT22;8197;51.664;7.114;2023-12-20T00:01:33;11.60;86.70
16182;DHT22;8197;51.664;7.114;2023-12-20T00:06:36;11.60;87.90
16182;DHT22;8197;51.664;7.114;2023-12-20T00:11:39;11.60;86.10
16182;DHT22;8197;51.664;7.114;2023-12-20T00:16:45;11.50;87.30
16182;DHT22;8197;51.664;7.114;2023-12-20T00:21:47;11.50;87.00
16182;DHT22;8197;51.664;7.114;2023-12-20T00:26:51;11.50;86.00
16182;DHT22;8197;51.664;7.114;2023-12-20T00:31:55;11.50;87.00
16182;DHT22;8197;51.664;7.114;2023-12-20T00:36:58;11.50;85.10
16182;DHT22;8197;51.664;7.114;2023-12-20T00:42:01;11.60;86.00
16182;DHT22;8197;51.664;7.114;2023-12-20T00:47:05;11.60;85.70
16182;DHT22;8197;51.664;7.114;2023-12-20T00:52:08;11.60;86.10
16182;DHT22;8197;51.664;7.114;2023-12-20T00:57:11;11.60;85.30
16182;DHT22;8197;51.664;7.114;2023-12-20T01:02:15;11.50;84.60
16182;DHT22;8197;51.664;7.114;2023-12-20T01:07:18;11.40;83.00
16182;DHT22;8197;51.664;7.114;2023-12-20T01:12:21;11.50;83.90
16182;DHT22;8197;51.664;7.114;2023-12-20T01:17:25;11.50;84.20
16182;DHT22;8197;51.664;7.114;2023-12-20T01:22:29;11.50;85.60
16182;DHT22;8197;51.664;7.114;2023-12-20T01:27:31;11.50;81.40
16182;DHT22;8197;51.664;7.114;2023-12-20T01:32:36;11.50;84.70
16182;DHT22;8197;51.664;7.114;2023-12-20T01:37:38;11.50;84.40
16182;DHT22;8197;51.664;7.114;2023-12-20T01:42:41;11.50;83.50
16182;DHT22;8197;51.664;7.114;2023-12-20T01:47:46;11.50;82.70
16182;DHT22;8197;51.664;7.114;2023-12-20T01:52:49;11.40;83.90
16182;DHT22;8197;51.664;7.114;2023-12-20T01:57:53;11.40;85.40
16182;DHT22;8197;51.664;7.114;2023-12-20T02:03:01;11.30;84.20
16182;DHT22;8197;51.664;7.114;2023-12-20T02:08:04;11.30;83.40
16182;DHT22;8197;51.664;7.114;2023-12-20T02:13:07;11.30;81.30
16182;DHT22;8197;51.664;7.114;2023-12-20T02:18:11;11.30;84.40
16182;DHT22;8197;51.664;7.114;2023-12-20T02:23:18;11.40;82.50
16182;DHT22;8197;51.664;7.114;2023-12-20T02:28:21;11.30;83.00
16182;DHT22;8197;51.664;7.114;2023-12-20T02:33:25;11.20;81.60
16182;DHT22;8197;51.664;7.114;2023-12-20T02:38:29;11.30;83.40
16182;DHT22;8197;51.664;7.114;2023-12-20T02:43:33;11.20;81.80
16182;DHT22;8197;51.664;7.114;2023-12-20T02:48:36;11.30;80.40
16182;DHT22;8197;51.664;7.114;2023-12-20T02:53:40;11.20;81.50
16182;DHT22;8197;51.664;7.114;2023-12-20T02:58:43;11.20;79.60
16182;DHT22;8197;51.664;7.114;2023-12-20T03:03:46;11.10;81.10
16182;DHT22;8197;51.664;7.114;2023-12-20T03:08:53;11.10;83.00
16182;DHT22;8197;51.664;7.114;2023-12-20T03:13:56;11.10;79.20
16182;DHT22;8197;51.664;7.114;2023-12-20T03:18:59;11.00;80.50
16182;DHT22;8197;51.664;7.114;2023-12-20T03:24:04;11.10;79.30
16182;DHT22;8197;51.664;7.114;2023-12-20T03:29:07;11.10;82.10
16182;DHT22;8197;51.664;7.114;2023-12-20T03:34:10;11.00;80.40
16182;DHT22;8197;51.664;7.114;2023-12-20T03:39:15;11.00;79.50
16182;DHT22;8197;51.664;7.114;2023-12-20T03:44:17;11.10;82.20
16182;DHT22;8197;51.664;7.114;2023-12-20T03:49:20;11.10;82.60
16182;DHT22;8197;51.664;7.114;2023-12-20T03:54:25;11.00;79.90
16182;DHT22;8197;51.664;7.114;2023-12-20T03:59:27;11.00;77.80
16182;DHT22;8197;51.664;7.114;2023-12-20T04:04:30;11.00;79.20
16182;DHT22;8197;51.664;7.114;2023-12-20T04:09:35;11.00;78.30
16182;DHT22;8197;51.664;7.114;2023-12-20T04:14:38;10.90;79.90
16182;DHT22;8197;51.664;7.114;2023-12-20T04:19:42;10.90;81.30
16182;DHT22;8197;51.664;7.114;2023-12-20T04:24:46;10.90;80.10
16182;DHT22;8197;51.664;7.114;2023-12-20T04:29:49;10.80;81.00
16182;DHT22;8197;51.664;7.114;2023-12-20T04:34:52;10.90;80.60
16182;DHT22;8197;51.664;7.114;2023-12-20T04:39:57;10.90;77.50
16182;DHT22;8197;51.664;7.114;2023-12-20T04:45:00;10.90;80.20
16182;DHT22;8197;51.664;7.114;2023-12-20T04:50:04;10.80;79.40
16182;DHT22;8197;51.664;7.114;2023-12-20T04:55:09;10.70;79.40
16182;DHT22;8197;51.664;7.114;2023-12-20T05:00:12;10.80;79.70
16182;DHT22;8197;51.664;7.114;2023-12-20T05:05:17;10.90;79.90
16182;DHT22;8197;51.664;7.114;2023-12-20T05:10:21;10.80;78.20
16182;DHT22;8197;51.664;7.114;2023-12-20T05:15:24;10.70;78.50
16182;DHT22;8197;51.664;7.114;2023-12-20T05:20:27;10.80;81.50
16182;DHT22;8197;51.664;7.114;2023-12-20T05:25:31;10.80;79.00
16182;DHT22;8197;51.664;7.114;2023-12-20T05:30:34;10.80;77.00
16182;DHT22;8197;51.664;7.114;2023-12-20T05:35:37;10.70;80.20
16182;DHT22;8197;51.664;7.114;2023-12-20T05:40:42;10.70;78.00
16182;DHT22;8197;51.664;7.114;2023-12-20T05:45:45;10.80;79.80
16182;DHT22;8197;51.664;7.114;2023-12-20T05:50:48;10.80;78.10
16182;DHT22;8197;51.664;7.114;2023-12-20T05:55:52;10.90;78.80
16182;DHT22;8197;51.664;7.114;2023-12-20T06:00:55;10.70;78.40
16182;DHT22;8197;51.664;7.114;2023-12-20T06:05:58;10.70;80.30
16182;DHT22;8197;51.664;7.114;2023-12-20T06:11:17;10.60;78.10
16182;DHT22;8197;51.664;7.114;2023-12-20T06:16:21;10.70;81.10
16182;DHT22;8197;51.664;7.114;2023-12-20T06:21:24;10.70;79.40
16182;DHT22;8197;51.664;7.114;2023-12-20T06:26:28;10.70;78.00
16182;DHT22;8197;51.664;7.114;2023-12-20T06:31:31;10.50;77.90
16182;DHT22;8197;51.664;7.114;2023-12-20T06:36:34;10.60;80.10
16182;DHT22;8197;51.664;7.114;2023-12-20T06:41:39;10.60;78.40
16182;DHT22;8197;51.664;7.114;2023-12-20T06:46:43;10.70;79.30
16182;DHT22;8197;51.664;7.114;2023-12-20T06:51:46;10.60;79.20
16182;DHT22;8197;51.664;7.114;2023-12-20T06:56:52;10.70;79.50
16182;DHT22;8197;51.664;7.114;2023-12-20T07:01:55;10.70;79.50
16182;DHT22;8197;51.664;7.114;2023-12-20T07:06:59;10.80;78.80
16182;DHT22;8197;51.664;7.114;2023-12-20T07:12:04;10.80;79.20
16182;DHT22;8197;51.664;7.114;2023-12-20T07:17:07;10.70;77.60
16182;DHT22;8197;51.664;7.114;2023-12-20T07:22:15;10.80;79.00
16182;DHT22;8197;51.664;7.114;2023-12-20T07:27:19;10.90;78.30
16182;DHT22;8197;51.664;7.114;2023-12-20T07:32:22;10.80;76.60
16182;DHT22;8197;51.664;7.114;2023-12-20T07:37:25;10.70;76.90
16182;DHT22;8197;51.664;7.114;2023-12-20T07:42:29;10.70;80.00
16182;DHT22;8197;51.664;7.114;2023-12-20T07:47:32;10.80;79.50
16182;DHT22;8197;51.664;7.114;2023-12-20T07:52:35;10.80;77.50
16182;DHT22;8197;51.664;7.114;2023-12-20T07:57:39;10.80;78.00
16182;DHT22;8197;51.664;7.114;2023-12-20T08:02:42;10.80;77.40
16182;DHT22;8197;51.664;7.114;2023-12-20T08:07:45;10.70;78.60
16182;DHT22;8197;51.664;7.114;2023-12-20T08:12:50;10.70;77.90
16182;DHT22;8197;51.664;7.114;2023-12-20T08:17:53;10.70;77.30
16182;DHT22;8197;51.664;7.114;2023-12-20T08:22:56;10.60;76.50
16182;DHT22;8197;51.664;7.114;2023-12-20T08:28:04;10.70;77.10
16182;DHT22;8197;51.664;7.114;2023-12-20T08:33:07;10.80;77.20
16182;DHT22;8197;51.664;7.114;2023-12-20T08:38:13;10.70;77.50
16182;DHT22;8197;51.664;7.114;2023-12-20T08:43:17;10.80;78.50
16182;DHT22;8197;51.664;7.114;2023-12-20T08:48:20;10.80;76.20
16182;DHT22;8197;51.664;7.114;2023-12-20T08:53:23;10.80;77.70
16182;DHT22;8197;51.664;7.114;2023-12-20T08:58:28;10.70;75.60
16182;DHT22;8197;51.664;7.114;2023-12-20T09:03:31;10.70;77.10
16182;DHT22;8197;51.664;7.114;2023-12-20T09:08:34;10.80;78.10
16182;DHT22;8197;51.664;7.114;2023-12-20T09:13:40;10.80;77.70
16182;DHT22;8197;51.664;7.114;2023-12-20T09:18:43;10.80;76.90
16182;DHT22;8197;51.664;7.114;2023-12-20T09:23:46;10.80;77.60
16182;DHT22;8197;51.664;7.114;2023-12-20T09:28:50;10.80;77.20
16182;DHT22;8197;51.664;7.114;2023-12-20T09:33:53;10.90;76.50
16182;DHT22;8197;51.664;7.114;2023-12-20T09:38:56;10.80;76.50
16182;DHT22;8197;51.664;7.114;2023-12-20T09:44:02;10.80;77.30
16182;DHT22;8197;51.664;7.114;2023-12-20T09:49:06;10.70;76.80
16182;DHT22;8197;51.664;7.114;2023-12-20T09:54:09;10.70;76.90
16182;DHT22;8197;51.664;7.114;2023-12-20T09:59:14;10.80;77.20
16182;DHT22;8197;51.664;7.114;2023-12-20T10:04:17;10.70;77.80
16182;DHT22;8197;51.664;7.114;2023-12-20T10:09:31;10.80;77.30
16182;DHT22;8197;51.664;7.114;2023-12-20T10:14:36;10.80;76.50
16182;DHT22;8197;51.664;7.114;2023-12-20T10:19:38;10.80;77.30
16182;DHT22;8197;51.664;7.114;2023-12-20T10:24:41;10.80;76.90
16182;DHT22;8197;51.664;7.114;2023-12-20T10:29:46;10.80;77.50
16182;DHT22;8197;51.664;7.114;2023-12-20T10:34:49;10.80;78.20
16182;DHT22;8197;51.664;7.114;2023-12-20T10:39:55;10.80;77.80
16182;DHT22;8197;51.664;7.114;2023-12-20T10:45:01;10.80;77.70
16182;DHT22;8197;51.664;7.114;2023-12-20T10:50:05;10.80;77.80
16182;DHT22;8197;51.664;7.114;2023-12-20T10:55:09;10.80;78.10
16182;DHT22;8197;51.664;7.114;2023-12-20T11:00:16;10.90;78.70
16182;DHT22;8197;51.664;7.114;2023-12-20T11:05:26;10.90;78.00
16182;DHT22;8197;51.664;7.114;2023-12-20T11:10:38;11.00;78.50
16182;DHT22;8197;51.664;7.114;2023-12-20T11:15:44;11.00;78.10
16182;DHT22;8197;51.664;7.114;2023-12-20T11:20:48;11.00;77.70
16182;DHT22;8197;51.664;7.114;2023-12-20T11:25:55;10.90;77.90
16182;DHT22;8197;51.664;7.114;2023-12-20T11:31:02;10.90;78.20
16182;DHT22;8197;51.664;7.114;2023-12-20T11:36:13;10.90;78.70
16182;DHT22;8197;51.664;7.114;2023-12-20T11:41:16;10.90;79.10
16182;DHT22;8197;51.664;7.114;2023-12-20T11:46:20;10.90;79.00
16182;DHT22;8197;51.664;7.114;2023-12-20T11:51:24;10.90;79.80
16182;DHT22;8197;51.664;7.114;2023-12-20T11:56:29;10.90;79.50
16182;DHT22;8197;51.664;7.114;2023-12-20T12:01:35;11.00;79.40
16182;DHT22;8197;51.664;7.114;2023-12-20T12:06:38;11.00;80.10
16182;DHT22;8197;51.664;7.114;2023-12-20T12:11:41;11.00;79.40
16182;DHT22;8197;51.664;7.114;2023-12-20T12:16:46;11.00;80.20
16182;DHT22;8197;51.664;7.114;2023-12-20T12:21:49;11.00;80.30
16182;DHT22;8197;51.664;7.114;2023-12-20T12:26:52;11.00;80.00
16182;DHT22;8197;51.664;7.114;2023-12-20T12:31:57;11.10;79.90
16182;DHT22;8197;51.664;7.114;2023-12-20T12:37:00;10.90;79.50
16182;DHT22;8197;51.664;7.114;2023-12-20T12:42:03;10.90;80.00
16182;DHT22;8197;51.664;7.114;2023-12-20T12:47:07;11.00;79.80
16182;DHT22;8197;51.664;7.114;2023-12-20T12:52:10;11.00;79.60
16182;DHT22;8197;51.664;7.114;2023-12-20T12:57:14;11.00;79.40
16182;DHT22;8197;51.664;7.114;2023-12-20T13:02:18;10.90;79.30
16182;DHT22;8197;51.664;7.114;2023-12-20T13:07:21;11.00;79.40
16182;DHT22;8197;51.664;7.114;2023-12-20T13:12:24;11.10;79.40
16182;DHT22;8197;51.664;7.114;2023-12-20T13:17:28;11.10;79.40
16182;DHT22;8197;51.664;7.114;2023-12-20T13:22:33;11.10;78.70
16182;DHT22;8197;51.664;7.114;2023-12-20T13:27:37;11.00;78.40
16182;DHT22;8197;51.664;7.114;2023-12-20T13:32:41;11.10;79.10
16182;DHT22;8197;51.664;7.114;2023-12-20T13:37:45;11.10;79.30
16182;DHT22;8197;51.664;7.114;2023-12-20T13:42:48;11.00;78.80
16182;DHT22;8197;51.664;7.114;2023-12-20T13:47:52;11.00;79.00
16182;DHT22;8197;51.664;7.114;2023-12-20T13:52:55;11.00;79.50
16182;DHT22;8197;51.664;7.114;2023-12-20T13:57:58;11.10;79.30
16182;DHT22;8197;51.664;7.114;2023-12-20T14:03:04;11.00;78.70
16182;DHT22;8197;51.664;7.114;2023-12-20T14:08:07;11.10;79.80
16182;DHT22;8197;51.664;7.114;2023-12-20T14:13:12;11.00;79.10
16182;DHT22;8197;51.664;7.114;2023-12-20T14:18:17;11.00;79.80
16182;DHT22;8197;51.664;7.114;2023-12-20T14:23:20;11.10;79.70
16182;DHT22;8197;51.664;7.114;2023-12-20T14:28:24;11.10;79.70
16182;DHT22;8197;51.664;7.114;2023-12-20T14:33:28;11.20;79.10
16182;DHT22;8197;51.664;7.114;2023-12-20T14:38:31;11.10;79.20
16182;DHT22;8197;51.664;7.114;2023-12-20T14:43:34;11.10;79.20
16182;DHT22;8197;51.664;7.114;2023-12-20T14:48:38;11.10;79.30
16182;DHT22;8197;51.664;7.114;2023-12-20T14:53:42;11.20;79.10
16182;DHT22;8197;51.664;7.114;2023-12-20T14:58:45;11.20;80.00
16182;DHT22;8197;51.664;7.114;2023-12-20T15:03:50;11.10;78.80
16182;DHT22;8197;51.664;7.114;2023-12-20T15:08:54;11.20;79.30
16182;DHT22;8197;51.664;7.114;2023-12-20T15:13:57;11.10;79.10
16182;DHT22;8197;51.664;7.114;2023-12-20T15:19:03;11.10;78.90
16182;DHT22;8197;51.664;7.114;2023-12-20T15:24:06;11.10;78.90
16182;DHT22;8197;51.664;7.114;2023-12-20T15:29:15;11.10;79.40
16182;DHT22;8197;51.664;7.114;2023-12-20T15:34:20;11.10;79.30
16182;DHT22;8197;51.664;7.114;2023-12-20T15:39:23;11.10;79.60
16182;DHT22;8197;51.664;7.114;2023-12-20T15:44:26;11.10;79.90
16182;DHT22;8197;51.664;7.114;2023-12-20T15:49:30;11.10;80.10
16182;DHT22;8197;51.664;7.114;2023-12-20T15:54:34;11.20;80.00
16182;DHT22;8197;51.664;7.114;2023-12-20T15:59:39;11.20;79.50
16182;DHT22;8197;51.664;7.114;2023-12-20T16:04:43;11.20;79.40
16182;DHT22;8197;51.664;7.114;2023-12-20T16:09:47;11.20;78.70
16182;DHT22;8197;51.664;7.114;2023-12-20T16:14:49;11.20;79.60
16182;DHT22;8197;51.664;7.114;2023-12-20T16:19:54;11.20;78.80
16182;DHT22;8197;51.664;7.114;2023-12-20T16:24:57;11.20;79.30
16182;DHT22;8197;51.664;7.114;2023-12-20T16:30:01;11.20;78.40
16182;DHT22;8197;51.664;7.114;2023-12-20T16:35:05;11.20;78.80
16182;DHT22;8197;51.664;7.114;2023-12-20T16:40:10;11.20;78.50
16182;DHT22;8197;51.664;7.114;2023-12-20T16:45:13;11.10;79.90
16182;DHT22;8197;51.664;7.114;2023-12-20T16:50:18;11.20;79.20
16182;DHT22;8197;51.664;7.114;2023-12-20T16:55:21;11.10;79.20
16182;DHT22;8197;51.664;7.114;2023-12-20T17:00:24;11.20;79.20
16182;DHT22;8197;51.664;7.114;2023-12-20T17:05:29;11.20;79.10
16182;DHT22;8197;51.664;7.114;2023-12-20T17:10:33;11.10;79.10
16182;DHT22;8197;51.664;7.114;2023-12-20T17:15:36;11.10;80.20
16182;DHT22;8197;51.664;7.114;2023-12-20T17:20:41;11.10;79.50
16182;DHT22;8197;51.664;7.114;2023-12-20T17:25:44;11.10;79.80
16182;DHT22;8197;51.664;7.114;2023-12-20T17:30:47;11.10;80.40
16182;DHT22;8197;51.664;7.114;2023-12-20T17:35:51;11.10;80.80
16182;DHT22;8197;51.664;7.114;2023-12-20T17:40:57;11.10;80.20
16182;DHT22;8197;51.664;7.114;2023-12-20T17:46:00;11.10;80.60
16182;DHT22;8197;51.664;7.114;2023-12-20T17:51:04;11.10;80.70
16182;DHT22;8197;51.664;7.114;2023-12-20T17:56:07;10.80;81.50
16182;DHT22;8197;51.664;7.114;2023-12-20T18:01:10;10.80;81.00
16182;DHT22;8197;51.664;7.114;2023-12-20T18:06:17;10.90;81.50
16182;DHT22;8197;51.664;7.114;2023-12-20T18:11:20;10.80;81.20
16182;DHT22;8197;51.664;7.114;2023-12-20T18:16:23;10.80;81.90
16182;DHT22;8197;51.664;7.114;2023-12-20T18:21:28;10.90;81.30
16182;DHT22;8197;51.664;7.114;2023-12-20T18:26:31;10.90;81.20
16182;DHT22;8197;51.664;7.114;2023-12-20T18:31:37;10.90;80.70
16182;DHT22;8197;51.664;7.114;2023-12-20T18:36:42;10.90;81.10
16182;DHT22;8197;51.664;7.114;2023-12-20T18:41:44;11.00;80.90
16182;DHT22;8197;51.664;7.114;2023-12-20T18:46:49;10.90;81.40
16182;DHT22;8197;51.664;7.114;2023-12-20T18:51:54;10.90;82.00
16182;DHT22;8197;51.664;7.114;2023-12-20T18:56:57;10.90;82.00
16182;DHT22;8197;51.664;7.114;2023-12-20T19:02:00;10.90;81.80
16182;DHT22;8197;51.664;7.114;2023-12-20T19:07:04;11.00;81.90
16182;DHT22;8197;51.664;7.114;2023-12-20T19:12:07;11.00;81.90
16182;DHT22;8197;51.664;7.114;2023-12-20T19:17:10;11.00;82.10
16182;DHT22;8197;51.664;7.114;2023-12-20T19:22:15;11.00;82.20
16182;DHT22;8197;51.664;7.114;2023-12-20T19:27:18;11.00;82.60
16182;DHT22;8197;51.664;7.114;2023-12-20T19:32:20;11.00;82.60
16182;DHT22;8197;51.664;7.114;2023-12-20T19:37:25;11.00;82.50
16182;DHT22;8197;51.664;7.114;2023-12-20T19:42:28;11.00;83.00
16182;DHT22;8197;51.664;7.114;2023-12-20T19:47:32;11.00;83.20
16182;DHT22;8197;51.664;7.114;2023-12-20T19:52:37;11.00;83.00
16182;DHT22;8197;51.664;7.114;2023-12-20T19:57:40;11.00;83.10
16182;DHT22;8197;51.664;7.114;2023-12-20T20:02:43;11.10;83.00
16182;DHT22;8197;51.664;7.114;2023-12-20T20:07:47;11.00;83.40
16182;DHT22;8197;51.664;7.114;2023-12-20T20:12:50;11.00;83.90
16182;DHT22;8197;51.664;7.114;2023-12-20T20:17:53;10.90;84.00
16182;DHT22;8197;51.664;7.114;2023-12-20T20:22:57;11.00;84.10
16182;DHT22;8197;51.664;7.114;2023-12-20T20:28:00;11.00;84.30
16182;DHT22;8197;51.664;7.114;2023-12-20T20:33:03;10.90;84.50
16182;DHT22;8197;51.664;7.114;2023-12-20T20:38:08;10.90;86.70
16182;DHT22;8197;51.664;7.114;2023-12-20T20:43:11;10.90;87.00
16182;DHT22;8197;51.664;7.114;2023-12-20T20:48:14;11.00;87.50
16182;DHT22;8197;51.664;7.114;2023-12-20T20:53:32;11.20;89.60
16182;DHT22;8197;51.664;7.114;2023-12-20T20:58:35;11.20;89.10
16182;DHT22;8197;51.664;7.114;2023-12-20T21:03:38;11.20;90.10
16182;DHT22;8197;51.664;7.114;2023-12-20T21:08:42;11.30;89.90
16182;DHT22;8197;51.664;7.114;2023-12-20T21:13:45;11.30;89.40
16182;DHT22;8197;51.664;7.114;2023-12-20T21:18:50;11.40;87.20
16182;DHT22;8197;51.664;7.114;2023-12-20T21:23:54;11.40;89.20
16182;DHT22;8197;51.664;7.114;2023-12-20T21:28:58;11.40;88.40
16182;DHT22;8197;51.664;7.114;2023-12-20T21:34:01;11.40;88.50
16182;DHT22;8197;51.664;7.114;2023-12-20T21:39:05;11.40;90.30
16182;DHT22;8197;51.664;7.114;2023-12-20T21:44:10;11.50;89.20
16182;DHT22;8197;51.664;7.114;2023-12-20T21:49:13;11.50;88.60
16182;DHT22;8197;51.664;7.114;2023-12-20T21:54:18;11.50;90.10
16182;DHT22;8197;51.664;7.114;2023-12-20T21:59:21;11.50;90.20
16182;DHT22;8197;51.664;7.114;2023-12-20T22:04:26;11.50;88.30
16182;DHT22;8197;51.664;7.114;2023-12-20T22:09:31;11.50;89.10
16182;DHT22;8197;51.664;7.114;2023-12-20T22:14:34;11.60;89.20
16182;DHT22;8197;51.664;7.114;2023-12-20T22:19:36;11.50;88.80
16182;DHT22;8197;51.664;7.114;2023-12-20T22:24:41;11.50;87.90
16182;DHT22;8197;51.664;7.114;2023-12-20T22:29:44;11.50;89.30
16182;DHT22;8197;51.664;7.114;2023-12-20T22:34:48;11.50;89.70
16182;DHT22;8197;51.664;7.114;2023-12-20T22:39:52;11.60;88.90
16182;DHT22;8197;51.664;7.114;2023-12-20T22:44:55;11.60;88.40
16182;DHT22;8197;51.664;7.114;2023-12-20T22:49:59;11.60;88.60
16182;DHT22;8197;51.664;7.114;2023-12-20T22:55:04;11.60;90.20
16182;DHT22;8197;51.664;7.114;2023-12-20T23:00:11;11.60;89.20
16182;DHT22;8197;51.664;7.114;2023-12-20T23:05:18;11.60;88.50
16182;DHT22;8197;51.664;7.114;2023-12-20T23:10:23;11.60;88.70
16182;DHT22;8197;51.664;7.114;2023-12-20T23:15:31;11.50;89.10
16182;DHT22;8197;51.664;7.114;2023-12-20T23:20:34;11.50;88.90
16182;DHT22;8197;51.664;7.114;2023-12-20T23:25:39;11.60;89.20
16182;DHT22;8197;51.664;7.114;2023-12-20T23:30:43;11.60;89.80
16182;DHT22;8197;51.664;7.114;2023-12-20T23:35:46;11.60;89.10
16182;DHT22;8197;51.664;7.114;2023-12-20T23:40:50;11.60;88.00
16182;DHT22;8197;51.664;7.114;2023-12-20T23:45:53;11.70;89.90
16182;DHT22;8197;51.664;7.114;2023-12-20T23:50:56;11.70;88.70
16182;DHT22;8197;51.664;7.114;2023-12-20T23:56:00;11.60;89.20
